createdAt,value
2019-03-28T00:08:41.349Z,98802.44
2019-03-28T00:11:12.199Z,98807.34
2019-03-28T00:13:42.801Z,98803.98
2019-03-28T00:16:13.401Z,98802.08
2019-03-28T00:18:43.967Z,98796.34
2019-03-28T00:21:14.616Z,98802.52
2019-03-28T00:24:13.318Z,98802.08
2019-03-28T00:26:43.897Z,98806.75
2019-03-28T00:29:14.516Z,98808.05
2019-03-28T00:31:47.768Z,98801.51
2019-03-28T00:34:17.474Z,98801.15
2019-03-28T00:36:48.744Z,98800.62
2019-03-28T00:39:19.463Z,98799.95
2019-03-28T00:41:50.104Z,98799.55
2019-03-28T00:44:20.725Z,98794.36
2019-03-28T00:46:51.344Z,98796.67
2019-03-28T00:49:22.036Z,98804.69
2019-03-28T00:51:52.685Z,98795.17
2019-03-28T00:54:23.277Z,98798.64
2019-03-28T00:56:53.901Z,98798.53
2019-03-28T01:07:47.838Z,98793.07
2019-03-28T01:10:19.469Z,98802.91
2019-03-28T01:12:51.152Z,98793.59
2019-03-28T01:15:21.805Z,98796.95
2019-03-28T01:33:04.035Z,98790.84
2019-03-28T01:35:35.131Z,98792.05
2019-03-28T01:38:06.251Z,98798.11
2019-03-28T01:40:37.241Z,98793.42
2019-03-28T01:43:07.812Z,98794.97
2019-03-28T01:45:38.783Z,98790.75
2019-03-28T01:48:09.629Z,98798.86
2019-03-28T01:50:40.665Z,98792.41
2019-03-28T01:53:12.271Z,98791.38
2019-03-28T01:55:43.237Z,98790.47
2019-03-28T01:58:13.892Z,98789.64
2019-03-28T02:00:45.271Z,98787.03
2019-03-28T02:03:15.899Z,98791.30
2019-03-28T02:05:46.505Z,98792.13
2019-03-28T02:08:17.117Z,98787.06
2019-03-28T02:10:47.710Z,98787.55
2019-03-28T02:13:18.327Z,98783.67
2019-03-28T02:15:48.940Z,98788.47
2019-03-28T02:18:19.555Z,98779.64
2019-03-28T02:20:50.199Z,98782.19
2019-03-28T02:23:20.843Z,98784.20
2019-03-28T02:25:51.735Z,98784.23
2019-03-28T02:28:22.386Z,98781.65
2019-03-28T02:30:52.985Z,98785.16
2019-03-28T02:41:01.568Z,98778.45
2019-03-28T02:58:07.298Z,98789.50
2019-03-28T03:00:38.184Z,98787.77
2019-03-28T03:03:09.237Z,98795.00
2019-03-28T03:05:39.872Z,98791.83
2019-03-28T03:08:10.526Z,98796.64
2019-03-28T03:10:41.244Z,98801.84
2019-03-28T03:13:11.868Z,98796.93
2019-03-28T03:15:42.477Z,98794.77
2019-03-28T03:18:13.103Z,98794.42
2019-03-28T03:20:44.212Z,98788.26
2019-03-28T03:23:15.254Z,98797.80
2019-03-28T03:25:45.878Z,98796.19
2019-03-28T03:28:16.504Z,98793.09
2019-03-28T03:30:47.739Z,98791.88
2019-03-28T03:33:18.491Z,98795.09
2019-03-28T03:35:49.079Z,98792.16
2019-03-28T03:38:19.728Z,98791.18
2019-03-28T03:40:50.302Z,98794.92
2019-03-28T03:43:20.957Z,98795.62
2019-03-28T03:45:51.566Z,98794.84
2019-03-28T03:48:22.255Z,98797.61
2019-03-28T03:50:52.854Z,98798.86
2019-03-28T03:53:23.474Z,98798.87
2019-03-28T03:55:54.124Z,98797.19
2019-03-28T03:58:25.071Z,98803.30
2019-03-28T04:00:55.923Z,98806.81
2019-03-28T04:03:26.559Z,98798.85
2019-03-28T04:05:57.159Z,98798.31
2019-03-28T04:08:28.038Z,98794.52
2019-03-28T04:10:58.948Z,98800.77
2019-03-28T04:13:29.586Z,98801.12
2019-03-28T04:16:00.825Z,98802.24
2019-03-28T04:18:31.417Z,98799.48
2019-03-28T04:21:02.088Z,98795.02
2019-03-28T04:23:32.717Z,98803.45
2019-03-28T04:26:03.663Z,98802.06
2019-03-28T04:28:34.257Z,98803.36
2019-03-28T04:31:05.113Z,98798.55
2019-03-28T04:33:35.943Z,98803.93
2019-03-28T04:36:06.667Z,98804.06
2019-03-28T04:38:37.531Z,98803.64
2019-03-28T04:41:08.160Z,98806.86
2019-03-28T04:43:38.853Z,98801.41
2019-03-28T04:46:10.009Z,98809.23
2019-03-28T04:48:40.607Z,98811.91
2019-03-28T04:51:11.922Z,98806.42
2019-03-28T04:53:42.781Z,98805.52
2019-03-28T04:56:13.658Z,98809.12
2019-03-28T04:58:45.084Z,98806.06
2019-03-28T05:01:15.698Z,98821.01
2019-03-28T05:03:46.395Z,98815.68
2019-03-28T05:06:17.016Z,98812.91
2019-03-28T05:08:47.822Z,98815.23
2019-03-28T05:11:18.460Z,98817.25
2019-03-28T05:13:49.053Z,98813.46
2019-03-28T05:16:19.685Z,98818.05
2019-03-28T05:18:50.266Z,98819.80
2019-03-28T05:21:20.905Z,98818.66
2019-03-28T05:23:52.314Z,98820.60
2019-03-28T05:26:22.949Z,98826.38
2019-03-28T05:28:57.845Z,98825.94
2019-03-28T05:31:26.689Z,98829.38
2019-03-28T05:33:57.283Z,98825.75
2019-03-28T05:36:28.956Z,98830.94
2019-03-28T05:38:59.808Z,98831.59
2019-03-28T05:41:30.439Z,98833.00
2019-03-28T05:44:01.329Z,98831.77
2019-03-28T05:46:31.948Z,98839.52
2019-03-28T05:49:02.555Z,98842.83
2019-03-28T05:51:33.218Z,98839.32
2019-03-28T05:54:03.831Z,98838.33
2019-03-28T05:56:34.472Z,98832.87
2019-03-28T05:59:10.780Z,98841.09
2019-03-28T06:01:37.620Z,98834.45
2019-03-28T06:04:08.427Z,98845.18
2019-03-28T06:06:39.371Z,98846.93
2019-03-28T06:09:10.273Z,98851.94
2019-03-28T06:11:40.885Z,98844.95
2019-03-28T06:14:11.481Z,98849.32
2019-03-28T06:16:42.884Z,98847.59
2019-03-28T06:19:13.777Z,98854.88
2019-03-28T06:21:45.029Z,98853.08
2019-03-28T06:24:15.712Z,98850.64
2019-03-28T06:26:50.002Z,98853.80
2019-03-28T06:29:23.956Z,98857.13
2019-03-28T06:31:55.545Z,98859.42
2019-03-28T06:34:25.037Z,98854.66
2019-03-28T06:36:55.670Z,98862.77
2019-03-28T06:39:26.259Z,98860.13
2019-03-28T06:41:56.945Z,98863.11
2019-03-28T06:44:27.538Z,98866.13
2019-03-28T06:46:58.205Z,98866.03
2019-03-28T06:49:31.226Z,98864.75
2019-03-28T06:52:01.509Z,98865.90
2019-03-28T06:54:32.877Z,98869.80
2019-03-28T06:57:03.611Z,98869.29
2019-03-28T06:59:37.708Z,98871.81
2019-03-28T07:02:06.646Z,98864.92
2019-03-28T07:04:37.649Z,98867.13
2019-03-28T07:07:09.958Z,98870.33
2019-03-28T07:09:40.594Z,98874.11
2019-03-28T07:12:11.508Z,98866.61
2019-03-28T07:14:42.461Z,98860.17
2019-03-28T07:17:13.109Z,98866.44
2019-03-28T07:19:43.705Z,98869.28
2019-03-28T07:22:14.401Z,98860.44
2019-03-28T07:24:45.017Z,98871.97
2019-03-28T07:27:15.845Z,98868.89
2019-03-28T07:29:51.098Z,98867.05
2019-03-28T07:32:19.052Z,98863.81
2019-03-28T07:34:49.658Z,98864.39
2019-03-28T07:37:20.291Z,98864.81
2019-03-28T07:39:50.906Z,98863.08
2019-03-28T07:42:21.530Z,98860.68
2019-03-28T07:44:52.150Z,98860.03
2019-03-28T07:47:22.761Z,98861.76
2019-03-28T07:49:53.615Z,98858.52
2019-03-28T07:52:24.277Z,98870.85
2019-03-28T07:54:54.887Z,98867.51
2019-03-28T07:57:25.564Z,98877.47
2019-03-28T08:00:04.156Z,98872.13
2019-03-28T08:02:28.547Z,98869.19
2019-03-28T08:05:01.526Z,98873.70
2019-03-28T08:07:43.963Z,98882.81
2019-03-28T08:10:04.148Z,98873.08
2019-03-28T08:12:34.779Z,98883.81
2019-03-28T08:15:06.449Z,98880.26
2019-03-28T08:17:37.066Z,98881.10
2019-03-28T08:20:10.246Z,98880.61
2019-03-28T08:22:41.155Z,98884.45
2019-03-28T08:25:13.097Z,98889.20
2019-03-28T08:27:44.645Z,98882.99
2019-03-28T08:30:18.820Z,98881.02
2019-03-28T08:32:48.797Z,98886.53
2019-03-28T08:35:19.458Z,98879.20
2019-03-28T08:37:50.534Z,98882.65
2019-03-28T08:40:35.487Z,98890.58
2019-03-28T08:43:06.599Z,98890.50
2019-03-28T08:45:37.228Z,98888.75
2019-03-28T08:48:08.009Z,98892.53
2019-03-28T08:50:38.732Z,98894.70
2019-03-28T08:53:09.367Z,98903.39
2019-03-28T08:55:40.062Z,98905.92
2019-03-28T08:58:10.667Z,98902.89
2019-03-28T09:00:51.460Z,98900.66
2019-03-28T09:03:13.720Z,98906.04
2019-03-28T09:05:44.471Z,98902.28
2019-03-28T09:08:15.400Z,98896.85
2019-03-28T09:10:46.302Z,98897.52
2019-03-28T09:13:17.024Z,98894.20
2019-03-28T09:15:47.672Z,98895.95
2019-03-28T09:18:18.431Z,98891.89
2019-03-28T09:20:49.056Z,98890.20
2019-03-28T09:23:19.933Z,98889.79
2019-03-28T09:25:50.530Z,98893.13
2019-03-28T09:28:21.173Z,98890.39
2019-03-28T09:30:52.604Z,98888.17
2019-03-28T09:33:23.930Z,98884.15
2019-03-28T09:35:54.525Z,98894.14
2019-03-28T09:38:25.286Z,98889.61
2019-03-28T09:40:55.911Z,98888.34
2019-03-28T09:43:26.546Z,98891.60
2019-03-28T09:46:00.267Z,98887.39
2019-03-28T09:48:29.584Z,98895.86
2019-03-28T09:51:00.666Z,98890.91
2019-03-28T09:53:31.720Z,98885.05
2019-03-28T09:56:02.327Z,98885.65
2019-03-28T09:58:33.949Z,98883.59
2019-03-28T10:01:05.409Z,98888.37
2019-03-28T10:03:36.051Z,98888.78
2019-03-28T10:06:06.671Z,98887.23
2019-03-28T10:08:37.390Z,98882.22
2019-03-28T10:11:07.991Z,98891.94
2019-03-28T10:13:39.702Z,98895.52
2019-03-28T10:16:10.648Z,98893.68
2019-03-28T10:18:41.642Z,98892.78
2019-03-28T10:21:12.286Z,98891.12
2019-03-28T10:23:43.636Z,98890.84
2019-03-28T10:26:15.003Z,98889.14
2019-03-28T10:28:45.769Z,98892.57
2019-03-28T10:31:17.048Z,98888.77
2019-03-28T10:33:47.832Z,98881.69
2019-03-28T10:36:18.428Z,98890.69
2019-03-28T10:38:49.099Z,98890.13
2019-03-28T10:41:19.726Z,98886.56
2019-03-28T10:43:50.964Z,98886.77
2019-03-28T10:46:21.612Z,98886.33
2019-03-28T10:48:54.474Z,98885.69
2019-03-28T10:51:24.587Z,98895.31
2019-03-28T10:53:55.222Z,98890.50
2019-03-28T10:56:26.062Z,98893.34
2019-03-28T10:58:56.677Z,98891.07
2019-03-28T11:01:47.151Z,98904.13
2019-03-28T11:03:59.913Z,98896.17
2019-03-28T11:06:30.476Z,98895.68
2019-03-28T11:09:01.909Z,98903.98
2019-03-28T11:11:33.773Z,98903.83
2019-03-28T11:14:04.493Z,98907.39
2019-03-28T11:16:35.405Z,98907.23
2019-03-28T11:19:06.567Z,98910.80
2019-03-28T11:21:37.411Z,98910.27
2019-03-28T11:24:08.020Z,98914.23
2019-03-28T11:26:38.656Z,98904.77
2019-03-28T11:29:09.266Z,98905.14
2019-03-28T11:31:46.730Z,98896.91
2019-03-28T11:34:12.791Z,98900.02
2019-03-28T11:36:43.430Z,98905.61
2019-03-28T11:39:14.374Z,98907.39
2019-03-28T11:41:44.968Z,98904.91
2019-03-28T11:44:15.590Z,98899.94
2019-03-28T11:46:46.206Z,98899.34
2019-03-28T11:49:17.587Z,98898.44
2019-03-28T11:51:48.196Z,98896.17
2019-03-28T11:54:18.861Z,98892.97
2019-03-28T11:56:49.442Z,98886.73
2019-03-28T11:59:20.091Z,98885.08
2019-03-28T12:01:59.764Z,98884.80
2019-03-28T12:04:23.035Z,98883.59
2019-03-28T12:06:53.919Z,98874.02
2019-03-28T12:09:24.886Z,98872.80
2019-03-28T12:11:55.491Z,98874.84
2019-03-28T12:14:26.122Z,98871.27
2019-03-28T12:16:56.785Z,98868.56
2019-03-28T12:19:27.438Z,98870.27
2019-03-28T12:21:58.064Z,98867.73
2019-03-28T12:24:28.740Z,98871.59
2019-03-28T12:26:59.345Z,98863.47
2019-03-28T12:29:29.984Z,98866.03
2019-03-28T12:32:13.344Z,98866.33
2019-03-28T12:34:32.942Z,98861.52
2019-03-28T12:37:03.539Z,98868.38
2019-03-28T12:39:34.796Z,98861.30
2019-03-28T12:42:05.433Z,98865.46
2019-03-28T12:44:36.062Z,98869.52
2019-03-28T12:47:06.684Z,98873.52
2019-03-28T12:49:37.649Z,98861.01
2019-03-28T12:52:08.251Z,98863.36
2019-03-28T12:54:39.879Z,98865.36
2019-03-28T12:57:14.164Z,98866.48
2019-03-28T12:59:43.403Z,98871.05
2019-03-28T13:02:28.346Z,98859.11
2019-03-28T13:04:46.858Z,98865.83
2019-03-28T13:07:17.436Z,98865.49
2019-03-28T13:09:49.067Z,98874.11
2019-03-28T13:12:19.712Z,98866.89
2019-03-28T13:14:50.320Z,98878.48
2019-03-28T13:17:20.931Z,98879.49
2019-03-28T13:19:51.559Z,98868.19
2019-03-28T13:22:22.189Z,98874.60
2019-03-28T13:24:52.804Z,98870.03
2019-03-28T13:27:23.398Z,98875.92
2019-03-28T13:29:55.146Z,98881.94
2019-03-28T13:32:25.833Z,98888.49
2019-03-28T13:34:56.444Z,98882.85
2019-03-28T13:37:27.045Z,98887.61
2019-03-28T13:39:57.676Z,98884.93
2019-03-28T13:42:28.567Z,98884.52
2019-03-28T13:44:59.208Z,98878.33
2019-03-28T13:47:29.813Z,98872.91
2019-03-28T13:50:01.209Z,98873.11
2019-03-28T13:52:32.088Z,98882.25
2019-03-28T13:55:02.729Z,98882.95
2019-03-28T13:57:34.547Z,98875.52
2019-03-28T14:00:07.475Z,98877.11
2019-03-28T14:02:38.390Z,98878.33
2019-03-28T14:05:09.101Z,98870.84
2019-03-28T14:07:39.747Z,98876.67
2019-03-28T14:10:11.592Z,98874.14
2019-03-28T14:12:42.291Z,98879.14
2019-03-28T14:15:12.920Z,98877.23
2019-03-28T14:17:43.570Z,98876.66
2019-03-28T14:20:14.689Z,98872.29
2019-03-28T14:22:45.297Z,98876.42
2019-03-28T14:25:16.498Z,98878.13
2019-03-28T14:27:47.106Z,98879.95
2019-03-28T14:30:17.993Z,98879.73
2019-03-28T14:32:53.644Z,98878.10
2019-03-28T14:35:21.529Z,98872.98
2019-03-28T14:37:52.122Z,98880.87
2019-03-28T14:40:22.838Z,98872.08
2019-03-28T14:42:53.769Z,98871.09
2019-03-28T14:45:24.375Z,98870.82
2019-03-28T14:47:54.999Z,98866.56
2019-03-28T14:50:36.768Z,98876.59
2019-03-28T14:53:07.494Z,98874.29
2019-03-28T14:55:38.158Z,98871.54
2019-03-28T14:58:08.987Z,98871.58
2019-03-28T15:00:50.517Z,98874.25
2019-03-28T15:03:28.514Z,98880.58
2019-03-28T15:05:55.510Z,98870.52
2019-03-28T15:08:26.495Z,98874.36
2019-03-28T15:10:57.108Z,98870.33
2019-03-28T15:13:31.264Z,98870.47
2019-03-28T15:16:01.845Z,98866.58
2019-03-28T15:18:32.450Z,98860.38
2019-03-28T15:21:03.080Z,98857.52
2019-03-28T15:23:33.759Z,98859.08
2019-03-28T15:26:04.836Z,98863.69
2019-03-28T15:28:35.399Z,98858.46
2019-03-28T15:31:06.303Z,98858.63
2019-03-28T15:33:39.881Z,98861.70
2019-03-28T15:36:09.196Z,98865.27
2019-03-28T15:38:40.129Z,98855.27
2019-03-28T15:41:11.912Z,98858.33
2019-03-28T15:43:42.782Z,98858.52
2019-03-28T15:46:13.436Z,98857.14
2019-03-28T15:48:44.572Z,98858.27
2019-03-28T15:51:15.203Z,98861.09
2019-03-28T15:53:45.807Z,98855.13
2019-03-28T15:56:16.591Z,98855.16
2019-03-28T15:58:47.187Z,98856.16
2019-03-28T16:01:17.817Z,98851.59
2019-03-28T16:03:53.074Z,98851.81
2019-03-28T16:06:22.554Z,98847.83
2019-03-28T16:08:53.667Z,98848.54
2019-03-28T16:11:24.836Z,98852.79
2019-03-28T16:13:55.729Z,98854.42
2019-03-28T16:16:26.427Z,98847.45
2019-03-28T16:19:01.385Z,98843.05
2019-03-28T16:21:31.376Z,98840.80
2019-03-28T16:24:01.997Z,98844.02
2019-03-28T16:26:32.887Z,98850.61
2019-03-28T16:29:03.484Z,98853.62
2019-03-28T16:31:34.095Z,98853.36
2019-03-28T16:34:07.268Z,98852.27
2019-03-28T16:36:37.017Z,98853.12
2019-03-28T16:39:08.579Z,98859.38
2019-03-28T16:41:40.813Z,98858.78
2019-03-28T16:44:11.431Z,98858.81
2019-03-28T16:46:42.578Z,98859.57
2019-03-28T16:49:13.184Z,98865.23
2019-03-28T16:51:45.133Z,98863.63
2019-03-28T16:54:15.727Z,98865.06
2019-03-28T16:56:46.381Z,98866.17
2019-03-28T16:59:16.983Z,98873.09
2019-03-28T17:01:47.607Z,98877.91
2019-03-28T17:04:20.971Z,98874.09
2019-03-28T17:06:50.941Z,98867.40
2019-03-28T17:09:23.542Z,98876.88
2019-03-28T17:11:54.166Z,98869.86
2019-03-28T17:14:24.777Z,98871.72
2019-03-28T17:16:55.864Z,98869.69
2019-03-28T17:19:26.519Z,98881.56
2019-03-28T17:21:57.383Z,98879.48
2019-03-28T17:24:28.139Z,98880.02
2019-03-28T17:26:58.919Z,98882.42
2019-03-28T17:29:29.765Z,98884.79
2019-03-28T17:32:00.384Z,98883.86
2019-03-28T17:34:35.228Z,98877.75
2019-03-28T17:37:03.306Z,98880.26
2019-03-28T17:39:33.997Z,98886.84
2019-03-28T17:42:06.226Z,98881.27
2019-03-28T17:44:37.562Z,98879.38
2019-03-28T17:47:08.602Z,98886.49
2019-03-28T17:49:39.257Z,98879.32
2019-03-28T17:52:09.904Z,98886.30
2019-03-28T17:54:40.536Z,98892.57
2019-03-28T17:57:11.548Z,98895.73
2019-03-28T17:59:45.207Z,98896.55
2019-03-28T18:02:15.536Z,98895.26
2019-03-28T18:04:48.175Z,98895.42
2019-03-28T18:07:18.541Z,98898.16
2019-03-28T18:09:49.157Z,98898.52
2019-03-28T18:12:20.058Z,98903.82
2019-03-28T18:14:50.947Z,98903.33
2019-03-28T18:17:21.921Z,98910.18
2019-03-28T18:19:52.517Z,98908.02
2019-03-28T18:22:23.143Z,98909.86
2019-03-28T18:24:53.739Z,98903.98
2019-03-28T18:27:24.398Z,98904.33
2019-03-28T18:29:55.995Z,98910.30
2019-03-28T18:32:26.864Z,98918.96
2019-03-28T18:35:05.279Z,98924.41
2019-03-28T18:37:30.075Z,98920.01
2019-03-28T18:40:03.938Z,98923.30
2019-03-28T18:42:33.092Z,98919.19
2019-03-28T18:45:03.726Z,98925.22
2019-03-28T18:47:35.350Z,98933.72
2019-03-28T18:50:06.951Z,98929.00
2019-03-28T18:52:37.579Z,98928.94
2019-03-28T18:55:09.184Z,98932.23
2019-03-28T18:57:40.016Z,98931.12
2019-03-28T19:00:11.001Z,98938.78
2019-03-28T19:02:41.712Z,98933.21
2019-03-28T19:05:19.716Z,98945.44
2019-03-28T19:07:44.876Z,98939.63
2019-03-28T19:10:15.573Z,98944.03
2019-03-28T19:12:47.225Z,98938.38
2019-03-28T19:15:18.522Z,98939.44
2019-03-28T19:17:49.428Z,98930.50
2019-03-28T19:20:20.519Z,98938.78
2019-03-28T19:22:51.130Z,98931.70
2019-03-28T19:25:21.741Z,98939.73
2019-03-28T19:27:52.378Z,98952.97
2019-03-28T19:30:31.942Z,98947.39
2019-03-28T19:33:06.672Z,98954.80
2019-03-28T19:35:36.627Z,98955.44
2019-03-28T19:38:09.131Z,98963.33
2019-03-28T19:40:39.662Z,98956.58
2019-03-28T19:43:20.613Z,98954.77
2019-03-28T19:45:43.587Z,98960.23
2019-03-28T19:48:14.198Z,98953.47
2019-03-28T19:50:44.827Z,98951.98
2019-03-28T19:53:15.467Z,98957.40
2019-03-28T19:55:46.098Z,98950.86
2019-03-28T19:58:16.897Z,98955.03
2019-03-28T20:00:47.541Z,98951.73
2019-03-28T20:03:18.413Z,98947.92
2019-03-28T20:05:50.088Z,98949.87
2019-03-28T20:08:21.000Z,98943.29
2019-03-28T20:10:51.616Z,98948.06
2019-03-28T20:13:22.274Z,98948.56
2019-03-28T20:15:52.881Z,98946.64
2019-03-28T20:18:23.579Z,98953.39
2019-03-28T20:20:55.694Z,98954.70
2019-03-28T20:23:26.475Z,98955.92
2019-03-28T20:25:57.061Z,98957.56
2019-03-28T20:28:27.686Z,98958.20
2019-03-28T20:30:58.315Z,98957.48
2019-03-28T20:33:29.007Z,98958.94
2019-03-28T20:36:18.546Z,98950.66
2019-03-28T20:38:31.957Z,98955.59
2019-03-28T20:41:02.588Z,98950.48
2019-03-28T20:43:33.476Z,98951.73
2019-03-28T20:46:04.109Z,98958.08
2019-03-28T20:48:38.690Z,98953.36
2019-03-28T20:51:08.180Z,98955.63
2019-03-28T20:53:39.090Z,98959.91
2019-03-28T20:56:09.990Z,98961.06
2019-03-28T20:58:40.739Z,98963.12
2019-03-28T21:01:11.356Z,98963.66
2019-03-28T21:03:42.224Z,98963.59
2019-03-28T21:06:15.519Z,98963.50
2019-03-28T21:08:45.774Z,98962.51
2019-03-28T21:11:16.383Z,98962.13
2019-03-28T21:13:47.034Z,98962.35
2019-03-28T21:16:19.286Z,98962.91
2019-03-28T21:18:49.955Z,98958.30
2019-03-28T21:21:20.598Z,98964.37
2019-03-28T21:23:51.227Z,98959.91
2019-03-28T21:26:21.963Z,98962.86
2019-03-28T21:28:52.643Z,98956.09
2019-03-28T21:31:23.311Z,98960.30
2019-03-28T21:33:55.056Z,98960.91
2019-03-28T21:36:30.118Z,98955.55
2019-03-28T21:38:58.173Z,98956.63
2019-03-28T21:41:28.789Z,98962.41
2019-03-28T21:43:59.441Z,98950.83
2019-03-28T21:46:30.035Z,98954.88
2019-03-28T21:49:00.661Z,98958.16
2019-03-28T21:51:31.260Z,98956.17
2019-03-28T21:54:04.894Z,98953.53
2019-03-28T21:56:34.457Z,98949.04
2019-03-28T21:59:05.155Z,98946.29
2019-03-28T22:01:36.051Z,98948.58
2019-03-28T22:04:06.687Z,98946.23
2019-03-28T22:06:42.733Z,98952.95
2019-03-28T22:09:09.871Z,98948.08
2019-03-28T22:11:42.301Z,98950.58
2019-03-28T22:14:13.734Z,98951.22
2019-03-28T22:16:44.449Z,98947.86
2019-03-28T22:19:15.071Z,98945.52
2019-03-28T22:21:45.679Z,98942.73
2019-03-28T22:24:16.306Z,98942.55
2019-03-28T22:26:46.905Z,98937.68
2019-03-28T22:29:17.646Z,98941.45
2019-03-28T22:31:48.249Z,98938.98
2019-03-28T22:34:18.882Z,98939.77
2019-03-28T22:36:57.033Z,98932.40
2019-03-28T22:39:21.832Z,98939.41
2019-03-28T22:41:52.521Z,98941.63
2019-03-28T22:44:23.201Z,98945.84
2019-03-28T22:46:53.806Z,98947.55
2019-03-28T22:49:24.473Z,98949.30
2019-03-28T22:51:55.048Z,98951.98
2019-03-28T22:54:25.670Z,98951.23
2019-03-28T22:56:56.299Z,98958.55
2019-03-28T22:59:28.003Z,98948.29
2019-03-28T23:01:58.593Z,98953.73
2019-03-28T23:04:29.922Z,98948.81
2019-03-28T23:07:10.326Z,98955.16
2019-03-28T23:09:33.089Z,98951.95
2019-03-28T23:12:03.959Z,98959.34
2019-03-28T23:14:34.585Z,98952.09
2019-03-28T23:17:05.196Z,98953.17
2019-03-28T23:19:35.809Z,98958.61
2019-03-28T23:22:06.421Z,98962.03
2019-03-28T23:24:39.021Z,98964.31
2019-03-28T23:27:10.802Z,98968.83
2019-03-28T23:29:41.861Z,98962.77
2019-03-28T23:32:12.994Z,98959.97
2019-03-28T23:34:44.850Z,98964.98
2019-03-28T23:37:24.607Z,98965.72
2019-03-28T23:39:48.236Z,98963.59
2019-03-28T23:42:19.076Z,98962.31
2019-03-28T23:44:49.708Z,98968.66
2019-03-28T23:47:20.299Z,98962.78
2019-03-28T23:49:50.924Z,98965.28
2019-03-28T23:52:21.554Z,98966.73
2019-03-28T23:54:52.806Z,98970.22
2019-03-28T23:57:23.479Z,98971.15
2019-03-28T23:59:54.127Z,98964.97
